CST,Max TemperatureF,Mean TemperatureF,Min TemperatureF,Max Dew PointF,MeanDew PointF,Min DewpointF,Max Humidity, Mean Humidity, Min Humidity, Max Sea Level PressureIn, Mean Sea Level PressureIn, Min Sea Level PressureIn, Max VisibilityMiles, Mean VisibilityMiles, Min VisibilityMiles, Max Wind SpeedMPH, Mean Wind SpeedMPH, Max Gust SpeedMPH,PrecipitationIn, CloudCover, Events, WindDirDegrees
2012-12-1,75,60,44,59,49,38,100,69,33,29.97,29.87,29.81,10,10,10,21,13,29,0.00,0,,200
2012-12-2,71,52,33,59,45,33,100,77,35,30.06,29.96,29.84,10,8,2,18,5,23,0.00,0,,180
2012-12-3,77,66,54,62,51,35,100,65,25,30.09,29.87,29.78,10,10,7,26,19,36,0.00,1,,232
2012-12-4,62,49,35,42,32,24,74,50,29,30.33,30.26,30.09,10,10,10,18,12,24,0.00,0,,2
2012-12-5,63,46,30,40,30,23,80,54,27,30.34,30.18,29.97,10,10,10,13,4,17,0.00,0,,155
2012-12-6,63,54,44,49,45,41,100,78,47,29.96,29.84,29.77,10,10,7,20,11,25,0.00,0,,223
2012-12-7,51,42,32,46,40,32,100,87,78,29.94,29.88,29.83,10,10,7,15,8,,0.00,5,,345
2012-12-8,47,38,30,45,39,31,100,95,85,29.97,29.89,29.78,10,7,4,12,4,,0.00,6,,17
2012-12-9,48,38,29,46,28,11,100,66,40,30.18,29.98,29.77,10,8,2,26,15,33,0.00,4,Rain,353
2012-12-10,38,27,16,14,9,6,64,49,30,30.21,30.12,30.03,10,10,10,23,11,33,0.00,0,,294
2012-12-11,49,37,25,20,17,13,66,49,31,30.17,30.10,30.05,10,10,10,12,5,17,0.00,0,,209
2012-12-12,54,41,28,26,21,15,60,45,32,30.18,30.12,30.06,10,10,10,23,10,31,0.00,0,,180
2012-12-13,63,50,36,39,30,25,65,50,32,30.13,30.08,30.04,10,10,10,22,15,29,0.00,0,,183
2012-12-14,56,52,48,53,45,37,100,78,63,30.06,29.87,29.63,10,9,2,28,15,33,0.12,4,Rain-Thunderstorm,178
2012-12-15,61,50,40,46,41,36,88,72,53,29.79,29.71,29.61,10,10,10,25,15,33,0.12,0,,212
2012-12-16,61,50,37,42,38,35,100,74,39,29.81,29.73,29.66,10,10,7,18,9,25,0.00,1,,272
2012-12-17,56,44,31,40,36,31,100,83,51,29.89,29.81,29.73,10,9,5,16,6,23,0.00,0,,244
2012-12-18,61,48,34,35,31,28,76,56,29,29.81,29.76,29.69,10,10,10,18,9,24,0.00,0,,5
2012-12-19,62,48,33,54,38,30,87,75,45,29.83,29.61,29.44,10,10,10,33,6,51,0.00,1,Rain,214
2012-12-20,46,35,24,29,17,12,80,51,26,30.35,30.22,29.85,10,10,10,32,21,47,0.00,1,Snow,312
2012-12-21,63,44,24,25,18,14,66,39,22,30.34,30.26,30.18,10,10,10,16,6,18,0.00,0,,212
2012-12-22,59,48,37,26,19,14,49,34,24,30.18,30.04,29.92,10,10,10,20,11,24,0.00,0,,197
2012-12-23,48,36,23,30,26,20,98,70,49,29.99,29.92,29.87,10,10,10,13,6,17,0.00,0,,341
2012-12-24,36,28,20,25,22,19,98,76,58,30.06,29.98,29.90,10,10,10,17,9,23,0.00,0,,16
2012-12-25,28,22,17,21,18,10,100,86,73,30.26,30.04,29.88,10,6,0,30,22,39,0.00,5,Snow,3
2012-12-26,28,20,11,20,13,8,90,76,56,30.27,30.18,30.04,10,10,10,21,11,28,0.00,0,,14
2012-12-27,32,26,20,29,24,20,100,91,82,30.03,29.91,29.83,10,10,7,18,8,23,0.00,0,,187
2012-12-28,34,26,17,26,20,14,100,77,51,30.19,30.05,29.95,10,10,5,18,10,24,0.00,2,,332
2012-12-29,47,29,11,28,21,10,93,73,40,30.39,30.31,30.20,10,10,10,8,4,,0.00,0,,281
2012-12-30,43,36,28,28,27,23,86,70,55,30.33,30.23,30.11,10,10,10,22,9,32,0.00,0,,175
2012-12-31,39,36,32,39,36,29,100,96,71,30.10,30.02,29.93,10,6,1,20,11,26,0.13,7,,212